createdAt,value
2023-04-09T00:04:10.943Z,102864.66
2023-04-09T00:14:32.403Z,102853.44
2023-04-09T00:24:53.814Z,102856.91
2023-04-09T00:35:16.229Z,102850.84
2023-04-09T00:45:37.945Z,102843.97
2023-04-09T00:55:59.352Z,102841.34
2023-04-09T01:06:27.061Z,102830.13
2023-04-09T01:16:52.760Z,102830.97
2023-04-09T01:27:14.978Z,102831.81
2023-04-09T01:37:37.620Z,102828.31
2023-04-09T01:47:59.547Z,102820.56
2023-04-09T01:58:21.009Z,102831.72
2023-04-09T02:08:47.595Z,102836.03
2023-04-09T02:19:08.966Z,102828.28
2023-04-09T02:29:30.689Z,102826.53
2023-04-09T02:39:52.060Z,102828.22
2023-04-09T02:50:13.406Z,102807.50
2023-04-09T03:00:34.776Z,102799.75
2023-04-09T03:10:56.116Z,102788.53
2023-04-09T03:21:17.454Z,102775.59
2023-04-09T03:31:38.881Z,102780.72
2023-04-09T03:42:01.740Z,102774.69
2023-04-09T03:52:23.126Z,102762.63
2023-04-09T04:02:44.656Z,102757.41
2023-04-09T04:13:06.558Z,102764.28
2023-04-09T04:23:27.968Z,102771.16
2023-04-09T04:33:49.327Z,102774.63
2023-04-09T04:44:10.690Z,102779.78
2023-04-09T04:54:32.021Z,102786.66
2023-04-09T05:04:53.380Z,102783.19
2023-04-09T05:15:14.735Z,102794.34
2023-04-09T05:25:36.411Z,102800.38
2023-04-09T05:35:57.845Z,102800.41
2023-04-09T05:46:19.347Z,102802.16
2023-04-09T05:56:42.535Z,102811.63
2023-04-09T06:07:03.931Z,102811.66
2023-04-09T06:17:25.318Z,102814.31
2023-04-09T06:27:46.725Z,102809.16
2023-04-09T06:38:10.053Z,102816.13
2023-04-09T06:48:31.473Z,102817.03
2023-04-09T06:58:52.812Z,102813.69
2023-04-09T07:09:14.154Z,102821.50
2023-04-09T07:19:35.596Z,102818.94
2023-04-09T07:29:57.905Z,102832.75
2023-04-09T07:40:19.905Z,102844.09
2023-04-09T07:50:41.242Z,102846.69
2023-04-09T08:01:02.637Z,102838.09
2023-04-09T08:11:25.939Z,102838.16
2023-04-09T08:21:50.338Z,102837.31
2023-04-09T08:32:12.678Z,102832.97
2023-04-09T08:42:34.501Z,102823.50
2023-04-09T08:52:56.947Z,102823.56
2023-04-09T09:03:18.496Z,102811.44
2023-04-09T09:13:39.942Z,102807.97
2023-04-09T09:24:01.314Z,102798.44
2023-04-09T09:34:23.493Z,102806.19
2023-04-09T09:44:44.834Z,102783.63
2023-04-09T09:55:06.519Z,102777.47
2023-04-09T10:05:29.381Z,102773.09
2023-04-09T10:15:51.921Z,102778.16
2023-04-09T10:26:13.597Z,102753.72
2023-04-09T10:36:36.176Z,102736.19
2023-04-09T10:46:58.067Z,102729.88
2023-04-09T10:57:21.509Z,102728.69
2023-04-09T11:07:54.783Z,102717.47
2023-04-09T11:18:23.505Z,102699.06
2023-04-09T11:28:44.885Z,102690.81
2023-04-09T11:39:06.530Z,102688.03
2023-04-09T11:49:28.034Z,102666.13
2023-04-09T11:59:49.574Z,102674.34
2023-04-09T12:10:11.254Z,102659.38
2023-04-09T12:20:32.610Z,102659.97
2023-04-09T12:30:54.474Z,102655.69
2023-04-09T12:41:16.430Z,102658.16
2023-04-09T12:51:37.936Z,102646.44
2023-04-09T13:01:59.437Z,102645.94
2023-04-09T13:12:21.603Z,102632.09
2023-04-09T13:22:42.993Z,102628.41
2023-04-09T13:33:04.442Z,102623.88
2023-04-09T13:43:28.090Z,102619.03
2023-04-09T13:53:49.829Z,102606.06
2023-04-09T14:04:11.223Z,102594.72
2023-04-09T14:14:32.666Z,102582.22
2023-04-09T14:24:54.025Z,102575.50
2023-04-09T14:35:15.582Z,102569.19
2023-04-09T14:45:37.095Z,102558.88
2023-04-09T14:55:58.480Z,102548.88
2023-04-09T15:06:20.240Z,102569.25
2023-04-09T15:16:41.749Z,102572.25
2023-04-09T15:27:03.233Z,102561.38
2023-04-09T15:37:24.772Z,102566.88
2023-04-09T15:47:46.757Z,102552.56
2023-04-09T15:58:08.232Z,102546.44
2023-04-09T16:08:29.613Z,102551.25
2023-04-09T16:18:51.485Z,102545.09
2023-04-09T16:29:13.250Z,102508.38
2023-04-09T16:39:34.676Z,102518.69
2023-04-09T16:49:56.342Z,102517.00
2023-04-09T17:00:18.090Z,102500.56
2023-04-09T17:10:39.489Z,102502.94
2023-04-09T17:21:00.863Z,102491.13
2023-04-09T17:31:24.193Z,102485.50
2023-04-09T17:41:45.893Z,102492.88
2023-04-09T17:52:09.035Z,102492.91
2023-04-09T18:02:34.691Z,102510.75
2023-04-09T18:12:56.401Z,102528.25
2023-04-09T18:23:18.143Z,102534.78
2023-04-09T18:33:39.522Z,102522.16
2023-04-09T18:44:00.913Z,102534.59
2023-04-09T18:54:22.577Z,102544.31
2023-04-09T19:04:45.024Z,102551.47
2023-04-09T19:15:06.815Z,102550.53
2023-04-09T19:25:28.907Z,102561.84
2023-04-09T19:35:50.935Z,102554.19
2023-04-09T19:46:12.362Z,102561.19
2023-04-09T19:56:33.972Z,102536.13
2023-04-09T20:06:55.497Z,102548.38
2023-04-09T20:17:19.767Z,102531.31
2023-04-09T20:27:41.191Z,102528.13
2023-04-09T20:38:02.612Z,102529.16
2023-04-09T20:48:24.000Z,102517.25
2023-04-09T20:58:45.349Z,102525.22
2023-04-09T21:09:06.684Z,102543.44
2023-04-09T21:19:28.142Z,102528.81
2023-04-09T21:29:49.560Z,102515.19
2023-04-09T21:40:11.110Z,102505.72
2023-04-09T21:50:33.080Z,102498.91
2023-04-09T22:00:54.457Z,102499.81
2023-04-09T22:11:16.346Z,102516.28
2023-04-09T22:21:37.711Z,102507.69
2023-04-09T22:31:59.132Z,102508.59
2023-04-09T22:42:20.497Z,102502.56
2023-04-09T22:52:44.984Z,102511.22
2023-04-09T23:03:06.528Z,102512.94
2023-04-09T23:13:28.056Z,102493.97
2023-04-09T23:23:49.456Z,102493.13
2023-04-09T23:34:10.802Z,102483.63
2023-04-09T23:44:32.361Z,102492.28
2023-04-09T23:54:54.002Z,102485.38
